sensor_id;sensor_type;location;lat;lon;timestamp;pressure;altitude;pressure_sealevel;temperature
24714;BMP280;12820;51.580;5.010;2023-02-10T00:00:53;103573.25;;;4.15
24714;BMP280;12820;51.580;5.010;2023-02-10T00:05:55;103587.09;;;4.10
24714;BMP280;12820;51.580;5.010;2023-02-10T00:11:03;103590.00;;;4.03
24714;BMP280;12820;51.580;5.010;2023-02-10T00:16:07;103590.56;;;3.98
24714;BMP280;12820;51.580;5.010;2023-02-10T00:21:16;103577.88;;;3.93
24714;BMP280;12820;51.580;5.010;2023-02-10T00:26:18;103593.31;;;3.88
24714;BMP280;12820;51.580;5.010;2023-02-10T00:31:20;103598.09;;;3.85
24714;BMP280;12820;51.580;5.010;2023-02-10T00:36:23;103589.63;;;3.82
24714;BMP280;12820;51.580;5.010;2023-02-10T00:41:26;103588.66;;;3.80
24714;BMP280;12820;51.580;5.010;2023-02-10T00:46:28;103586.13;;;3.78
24714;BMP280;12820;51.580;5.010;2023-02-10T00:51:32;103581.81;;;3.76
24714;BMP280;12820;51.580;5.010;2023-02-10T00:56:34;103594.25;;;3.76
24714;BMP280;12820;51.580;5.010;2023-02-10T01:01:36;103602.41;;;3.73
24714;BMP280;12820;51.580;5.010;2023-02-10T01:06:38;103610.56;;;3.71
24714;BMP280;12820;51.580;5.010;2023-02-10T01:11:41;103608.00;;;3.70
24714;BMP280;12820;51.580;5.010;2023-02-10T01:16:43;103612.97;;;3.70
24714;BMP280;12820;51.580;5.010;2023-02-10T01:21:45;103613.81;;;3.70
24714;BMP280;12820;51.580;5.010;2023-02-10T01:26:48;103627.19;;;3.72
24714;BMP280;12820;51.580;5.010;2023-02-10T01:31:51;103619.75;;;3.72
24714;BMP280;12820;51.580;5.010;2023-02-10T01:36:53;103608.25;;;3.74
24714;BMP280;12820;51.580;5.010;2023-02-10T01:41:55;103608.25;;;3.74
24714;BMP280;12820;51.580;5.010;2023-02-10T01:46:57;103603.28;;;3.74
24714;BMP280;12820;51.580;5.010;2023-02-10T01:52:06;103612.38;;;3.73
24714;BMP280;12820;51.580;5.010;2023-02-10T01:57:10;103601.56;;;3.73
24714;BMP280;12820;51.580;5.010;2023-02-10T02:02:13;103600.59;;;3.71
24714;BMP280;12820;51.580;5.010;2023-02-10T02:07:18;103610.56;;;3.71
24714;BMP280;12820;51.580;5.010;2023-02-10T02:17:58;103602.94;;;3.68
24714;BMP280;12820;51.580;5.010;2023-02-10T02:23:28;103606.19;;;3.67
24714;BMP280;12820;51.580;5.010;2023-02-10T02:34:27;103619.31;;;3.65
24714;BMP280;12820;51.580;5.010;2023-02-10T02:39:31;103630.91;;;3.64
24714;BMP280;12820;51.580;5.010;2023-02-10T02:44:33;103631.50;;;3.60
24714;BMP280;12820;51.580;5.010;2023-02-10T02:49:46;103622.31;;;3.59
24714;BMP280;12820;51.580;5.010;2023-02-10T02:54:59;103611.50;;;3.59
24714;BMP280;12820;51.580;5.010;2023-02-10T03:00:06;103613.91;;;3.57
24714;BMP280;12820;51.580;5.010;2023-02-10T03:05:10;103632.06;;;3.56
24714;BMP280;12820;51.580;5.010;2023-02-10T03:10:12;103639.53;;;3.56
24714;BMP280;12820;51.580;5.010;2023-02-10T03:15:14;103636.97;;;3.55
24714;BMP280;12820;51.580;5.010;2023-02-10T03:20:17;103637.75;;;3.54
24714;BMP280;12820;51.580;5.010;2023-02-10T03:25:19;103643.38;;;3.52
24714;BMP280;12820;51.580;5.010;2023-02-10T03:30:21;103642.38;;;3.48
24714;BMP280;12820;51.580;5.010;2023-02-10T03:35:23;103652.16;;;3.45
24714;BMP280;12820;51.580;5.010;2023-02-10T03:40:25;103646.97;;;3.42
24714;BMP280;12820;51.580;5.010;2023-02-10T03:45:27;103651.78;;;3.39
24714;BMP280;12820;51.580;5.010;2023-02-10T03:50:29;103652.44;;;3.37
24714;BMP280;12820;51.580;5.010;2023-02-10T03:55:32;103649.03;;;3.35
24714;BMP280;12820;51.580;5.010;2023-02-10T04:00:34;103648.84;;;3.32
24714;BMP280;12820;51.580;5.010;2023-02-10T04:05:37;103639.69;;;3.31
24714;BMP280;12820;51.580;5.010;2023-02-10T04:10:39;103647.91;;;3.30
24714;BMP280;12820;51.580;5.010;2023-02-10T04:15:41;103650.28;;;3.29
24714;BMP280;12820;51.580;5.010;2023-02-10T04:20:43;103650.19;;;3.27
24714;BMP280;12820;51.580;5.010;2023-02-10T04:25:45;103651.75;;;3.25
24714;BMP280;12820;51.580;5.010;2023-02-10T04:30:52;103654.13;;;3.24
24714;BMP280;12820;51.580;5.010;2023-02-10T04:35:54;103654.06;;;3.22
24714;BMP280;12820;51.580;5.010;2023-02-10T04:40:57;103657.31;;;3.21
24714;BMP280;12820;51.580;5.010;2023-02-10T04:45:59;103665.66;;;3.22
24714;BMP280;12820;51.580;5.010;2023-02-10T04:51:11;103657.38;;;3.23
24714;BMP280;12820;51.580;5.010;2023-02-10T04:56:14;103659.97;;;3.24
24714;BMP280;12820;51.580;5.010;2023-02-10T05:01:16;103668.56;;;3.29
24714;BMP280;12820;51.580;5.010;2023-02-10T05:06:19;103658.03;;;3.33
24714;BMP280;12820;51.580;5.010;2023-02-10T05:11:21;103659.91;;;3.37
24714;BMP280;12820;51.580;5.010;2023-02-10T05:16:23;103665.19;;;3.41
24714;BMP280;12820;51.580;5.010;2023-02-10T05:21:25;103664.66;;;3.47
24714;BMP280;12820;51.580;5.010;2023-02-10T05:26:27;103662.41;;;3.51
24714;BMP280;12820;51.580;5.010;2023-02-10T05:31:29;103661.75;;;3.54
24714;BMP280;12820;51.580;5.010;2023-02-10T05:36:32;103671.00;;;3.56
24714;BMP280;12820;51.580;5.010;2023-02-10T05:41:34;103685.25;;;3.58
24714;BMP280;12820;51.580;5.010;2023-02-10T05:46:37;103676.28;;;3.60
24714;BMP280;12820;51.580;5.010;2023-02-10T05:51:39;103677.97;;;3.61
24714;BMP280;12820;51.580;5.010;2023-02-10T05:56:41;103685.63;;;3.64
24714;BMP280;12820;51.580;5.010;2023-02-10T06:01:44;103693.16;;;3.66
24714;BMP280;12820;51.580;5.010;2023-02-10T06:06:46;103684.06;;;3.66
24714;BMP280;12820;51.580;5.010;2023-02-10T06:11:50;103692.47;;;3.68
24714;BMP280;12820;51.580;5.010;2023-02-10T06:16:52;103680.03;;;3.68
24714;BMP280;12820;51.580;5.010;2023-02-10T06:21:54;103681.78;;;3.69
24714;BMP280;12820;51.580;5.010;2023-02-10T06:26:57;103680.97;;;3.70
24714;BMP280;12820;51.580;5.010;2023-02-10T06:31:59;103677.72;;;3.71
24714;BMP280;12820;51.580;5.010;2023-02-10T06:37:01;103677.06;;;3.73
24714;BMP280;12820;51.580;5.010;2023-02-10T06:42:03;103678.06;;;3.77
24714;BMP280;12820;51.580;5.010;2023-02-10T06:47:05;103687.16;;;3.76
24714;BMP280;12820;51.580;5.010;2023-02-10T06:52:07;103696.34;;;3.77
24714;BMP280;12820;51.580;5.010;2023-02-10T06:57:18;103713.06;;;3.80
24714;BMP280;12820;51.580;5.010;2023-02-10T07:02:20;103709.81;;;3.81
24714;BMP280;12820;51.580;5.010;2023-02-10T07:07:22;103705.03;;;3.84
24714;BMP280;12820;51.580;5.010;2023-02-10T07:12:24;103717.63;;;3.87
24714;BMP280;12820;51.580;5.010;2023-02-10T07:17:29;103717.03;;;3.90
24714;BMP280;12820;51.580;5.010;2023-02-10T07:22:31;103723.03;;;3.94
24714;BMP280;12820;51.580;5.010;2023-02-10T07:27:33;103728.19;;;3.97
24714;BMP280;12820;51.580;5.010;2023-02-10T07:32:35;103730.94;;;4.01
24714;BMP280;12820;51.580;5.010;2023-02-10T07:37:38;103729.56;;;4.06
24714;BMP280;12820;51.580;5.010;2023-02-10T07:42:40;103714.19;;;4.13
24714;BMP280;12820;51.580;5.010;2023-02-10T07:48:06;103717.03;;;4.19
24714;BMP280;12820;51.580;5.010;2023-02-10T07:53:08;103719.09;;;4.25
24714;BMP280;12820;51.580;5.010;2023-02-10T07:58:10;103729.56;;;4.34
24714;BMP280;12820;51.580;5.010;2023-02-10T08:03:13;103740.72;;;4.41
24714;BMP280;12820;51.580;5.010;2023-02-10T08:08:16;103744.41;;;4.47
24714;BMP280;12820;51.580;5.010;2023-02-10T08:13:18;103748.97;;;4.54
24714;BMP280;12820;51.580;5.010;2023-02-10T08:18:20;103755.31;;;4.63
24714;BMP280;12820;51.580;5.010;2023-02-10T08:23:22;103749.94;;;4.71
24714;BMP280;12820;51.580;5.010;2023-02-10T08:28:24;103765.50;;;4.81
24714;BMP280;12820;51.580;5.010;2023-02-10T08:33:26;103755.91;;;4.89
24714;BMP280;12820;51.580;5.010;2023-02-10T08:38:33;103744.13;;;5.00
24714;BMP280;12820;51.580;5.010;2023-02-10T08:43:35;103733.22;;;5.14
24714;BMP280;12820;51.580;5.010;2023-02-10T08:48:38;103742.91;;;5.24
24714;BMP280;12820;51.580;5.010;2023-02-10T08:53:40;103750.41;;;5.39
24714;BMP280;12820;51.580;5.010;2023-02-10T08:58:44;103749.47;;;5.53
24714;BMP280;12820;51.580;5.010;2023-02-10T09:03:47;103745.22;;;5.66
24714;BMP280;12820;51.580;5.010;2023-02-10T09:08:50;103745.91;;;5.79
24714;BMP280;12820;51.580;5.010;2023-02-10T09:13:54;103744.16;;;5.94
24714;BMP280;12820;51.580;5.010;2023-02-10T09:18:56;103757.41;;;6.08
24714;BMP280;12820;51.580;5.010;2023-02-10T09:23:58;103759.78;;;6.22
24714;BMP280;12820;51.580;5.010;2023-02-10T09:29:01;103757.38;;;6.41
24714;BMP280;12820;51.580;5.010;2023-02-10T09:34:04;103761.47;;;6.56
24714;BMP280;12820;51.580;5.010;2023-02-10T09:39:07;103763.69;;;6.67
24714;BMP280;12820;51.580;5.010;2023-02-10T09:44:35;103747.78;;;6.82
24714;BMP280;12820;51.580;5.010;2023-02-10T09:50:03;103751.19;;;7.01
24714;BMP280;12820;51.580;5.010;2023-02-10T09:55:15;103762.44;;;7.10
24714;BMP280;12820;51.580;5.010;2023-02-10T10:00:25;103779.59;;;7.20
24714;BMP280;12820;51.580;5.010;2023-02-10T10:10:49;103770.13;;;7.69
24714;BMP280;12820;51.580;5.010;2023-02-10T10:16:21;103769.50;;;7.93
24714;BMP280;12820;51.580;5.010;2023-02-10T10:21:43;103775.28;;;8.09
24714;BMP280;12820;51.580;5.010;2023-02-10T10:27:02;103766.84;;;8.27
24714;BMP280;12820;51.580;5.010;2023-02-10T10:32:17;103776.28;;;8.32
24714;BMP280;12820;51.580;5.010;2023-02-10T10:37:22;103774.72;;;8.35
24714;BMP280;12820;51.580;5.010;2023-02-10T10:42:33;103771.34;;;8.53
24714;BMP280;12820;51.580;5.010;2023-02-10T10:48:01;103755.44;;;8.74
24714;BMP280;12820;51.580;5.010;2023-02-10T10:53:16;103755.66;;;9.00
24714;BMP280;12820;51.580;5.010;2023-02-10T10:58:25;103746.09;;;9.35
24714;BMP280;12820;51.580;5.010;2023-02-10T11:03:29;103733.19;;;9.70
24714;BMP280;12820;51.580;5.010;2023-02-10T11:08:35;103735.09;;;9.77
24714;BMP280;12820;51.580;5.010;2023-02-10T11:13:57;103733.19;;;9.93
24714;BMP280;12820;51.580;5.010;2023-02-10T11:19:01;103723.28;;;10.22
24714;BMP280;12820;51.580;5.010;2023-02-10T11:24:17;103723.31;;;10.48
24714;BMP280;12820;51.580;5.010;2023-02-10T11:29:19;103716.75;;;10.52
24714;BMP280;12820;51.580;5.010;2023-02-10T11:34:33;103719.41;;;10.57
24714;BMP280;12820;51.580;5.010;2023-02-10T11:39:42;103710.47;;;10.66
24714;BMP280;12820;51.580;5.010;2023-02-10T11:45:16;103706.19;;;10.64
24714;BMP280;12820;51.580;5.010;2023-02-10T11:50:21;103693.25;;;10.79
24714;BMP280;12820;51.580;5.010;2023-02-10T11:55:37;103692.50;;;11.10
24714;BMP280;12820;51.580;5.010;2023-02-10T12:00:54;103681.66;;;11.40
24714;BMP280;12820;51.580;5.010;2023-02-10T12:06:08;103676.38;;;11.93
24714;BMP280;12820;51.580;5.010;2023-02-10T12:38:32;103664.56;;;11.92
24714;BMP280;12820;51.580;5.010;2023-02-10T12:54:17;103654.47;;;11.92
24714;BMP280;12820;51.580;5.010;2023-02-10T12:59:26;103641.03;;;12.26
24714;BMP280;12820;51.580;5.010;2023-02-10T13:04:36;103638.31;;;12.53
24714;BMP280;12820;51.580;5.010;2023-02-10T13:09:46;103638.84;;;12.77
24714;BMP280;12820;51.580;5.010;2023-02-10T13:14:57;103637.19;;;13.17
24714;BMP280;12820;51.580;5.010;2023-02-10T13:20:13;103634.72;;;13.67
24714;BMP280;12820;51.580;5.010;2023-02-10T13:25:34;103642.19;;;13.59
24714;BMP280;12820;51.580;5.010;2023-02-10T13:35:49;103648.63;;;12.99
24714;BMP280;12820;51.580;5.010;2023-02-10T13:40:54;103637.41;;;13.29
24714;BMP280;12820;51.580;5.010;2023-02-10T13:46:27;103637.53;;;12.93
24714;BMP280;12820;51.580;5.010;2023-02-10T13:51:36;103635.31;;;13.08
24714;BMP280;12820;51.580;5.010;2023-02-10T13:56:39;103616.69;;;13.04
24714;BMP280;12820;51.580;5.010;2023-02-10T14:01:42;103618.63;;;13.60
24714;BMP280;12820;51.580;5.010;2023-02-10T14:06:50;103601.06;;;13.69
24714;BMP280;12820;51.580;5.010;2023-02-10T14:11:53;103600.75;;;13.98
24714;BMP280;12820;51.580;5.010;2023-02-10T14:22:23;103583.47;;;15.73
24714;BMP280;12820;51.580;5.010;2023-02-10T14:27:27;103576.16;;;16.13
24714;BMP280;12820;51.580;5.010;2023-02-10T14:32:30;103568.88;;;16.72
24714;BMP280;12820;51.580;5.010;2023-02-10T14:37:33;103557.94;;;16.94
24714;BMP280;12820;51.580;5.010;2023-02-10T14:42:36;103554.63;;;17.33
24714;BMP280;12820;51.580;5.010;2023-02-10T14:47:42;103568.13;;;17.00
24714;BMP280;12820;51.580;5.010;2023-02-10T14:52:46;103571.91;;;16.03
24714;BMP280;12820;51.580;5.010;2023-02-10T14:57:51;103576.69;;;15.75
24714;BMP280;12820;51.580;5.010;2023-02-10T15:02:58;103564.84;;;15.71
24714;BMP280;12820;51.580;5.010;2023-02-10T15:08:01;103574.47;;;16.12
24714;BMP280;12820;51.580;5.010;2023-02-10T15:13:07;103558.44;;;16.17
24714;BMP280;12820;51.580;5.010;2023-02-10T15:18:20;103549.56;;;15.65
24714;BMP280;12820;51.580;5.010;2023-02-10T15:23:25;103553.41;;;15.21
24714;BMP280;12820;51.580;5.010;2023-02-10T15:28:34;103555.28;;;14.64
24714;BMP280;12820;51.580;5.010;2023-02-10T15:33:54;103558.53;;;13.94
24714;BMP280;12820;51.580;5.010;2023-02-10T15:39:00;103555.03;;;13.37
24714;BMP280;12820;51.580;5.010;2023-02-10T15:44:22;103564.22;;;12.90
24714;BMP280;12820;51.580;5.010;2023-02-10T15:49:26;103563.31;;;12.46
24714;BMP280;12820;51.580;5.010;2023-02-10T15:54:28;103559.94;;;12.08
24714;BMP280;12820;51.580;5.010;2023-02-10T15:59:32;103558.28;;;11.74
24714;BMP280;12820;51.580;5.010;2023-02-10T16:04:34;103565.91;;;11.44
24714;BMP280;12820;51.580;5.010;2023-02-10T16:09:36;103571.94;;;11.19
24714;BMP280;12820;51.580;5.010;2023-02-10T16:14:38;103569.66;;;10.98
24714;BMP280;12820;51.580;5.010;2023-02-10T16:19:41;103566.59;;;10.79
24714;BMP280;12820;51.580;5.010;2023-02-10T16:24:43;103551.03;;;10.63
24714;BMP280;12820;51.580;5.010;2023-02-10T16:29:46;103546.41;;;10.47
24714;BMP280;12820;51.580;5.010;2023-02-10T16:34:49;103559.41;;;10.34
24714;BMP280;12820;51.580;5.010;2023-02-10T16:39:51;103541.34;;;10.20
24714;BMP280;12820;51.580;5.010;2023-02-10T16:44:53;103548.56;;;10.08
24714;BMP280;12820;51.580;5.010;2023-02-10T16:49:55;103537.31;;;9.97
24714;BMP280;12820;51.580;5.010;2023-02-10T16:54:57;103542.88;;;9.88
24714;BMP280;12820;51.580;5.010;2023-02-10T16:59:59;103534.19;;;9.78
24714;BMP280;12820;51.580;5.010;2023-02-10T17:05:03;103548.09;;;9.69
24714;BMP280;12820;51.580;5.010;2023-02-10T17:10:08;103567.97;;;9.62
24714;BMP280;12820;51.580;5.010;2023-02-10T17:15:14;103561.88;;;9.56
24714;BMP280;12820;51.580;5.010;2023-02-10T17:20:26;103564.19;;;9.50
24714;BMP280;12820;51.580;5.010;2023-02-10T17:25:29;103566.50;;;9.44
24714;BMP280;12820;51.580;5.010;2023-02-10T17:30:31;103557.94;;;9.39
24714;BMP280;12820;51.580;5.010;2023-02-10T17:35:33;103556.16;;;9.35
24714;BMP280;12820;51.580;5.010;2023-02-10T17:40:35;103557.66;;;9.30
24714;BMP280;12820;51.580;5.010;2023-02-10T17:45:38;103558.38;;;9.26
24714;BMP280;12820;51.580;5.010;2023-02-10T17:50:40;103548.22;;;9.23
24714;BMP280;12820;51.580;5.010;2023-02-10T17:55:42;103548.94;;;9.20
24714;BMP280;12820;51.580;5.010;2023-02-10T18:00:44;103555.53;;;9.18
24714;BMP280;12820;51.580;5.010;2023-02-10T18:05:47;103560.47;;;9.15
24714;BMP280;12820;51.580;5.010;2023-02-10T18:10:50;103553.69;;;9.12
24714;BMP280;12820;51.580;5.010;2023-02-10T18:15:53;103553.59;;;9.09
24714;BMP280;12820;51.580;5.010;2023-02-10T18:20:55;103546.78;;;9.07
24714;BMP280;12820;51.580;5.010;2023-02-10T18:25:57;103558.47;;;9.05
24714;BMP280;12820;51.580;5.010;2023-02-10T18:31:00;103552.47;;;9.02
24714;BMP280;12820;51.580;5.010;2023-02-10T18:36:12;103553.22;;;8.99
24714;BMP280;12820;51.580;5.010;2023-02-10T18:41:16;103548.94;;;8.97
24714;BMP280;12820;51.580;5.010;2023-02-10T18:46:18;103541.38;;;8.95
24714;BMP280;12820;51.580;5.010;2023-02-10T18:51:21;103539.59;;;8.93
24714;BMP280;12820;51.580;5.010;2023-02-10T18:56:24;103536.22;;;8.91
24714;BMP280;12820;51.580;5.010;2023-02-10T19:01:26;103526.13;;;8.89
24714;BMP280;12820;51.580;5.010;2023-02-10T19:06:30;103531.13;;;8.89
24714;BMP280;12820;51.580;5.010;2023-02-10T19:11:32;103519.38;;;8.88
24714;BMP280;12820;51.580;5.010;2023-02-10T19:16:34;103520.16;;;8.86
24714;BMP280;12820;51.580;5.010;2023-02-10T19:21:36;103517.56;;;8.85
24714;BMP280;12820;51.580;5.010;2023-02-10T19:26:38;103513.34;;;8.84
24714;BMP280;12820;51.580;5.010;2023-02-10T19:31:40;103511.69;;;8.84
24714;BMP280;12820;51.580;5.010;2023-02-10T19:36:44;103504.13;;;8.83
24714;BMP280;12820;51.580;5.010;2023-02-10T19:41:48;103507.47;;;8.83
24714;BMP280;12820;51.580;5.010;2023-02-10T19:46:50;103512.47;;;8.82
24714;BMP280;12820;51.580;5.010;2023-02-10T19:51:52;103522.50;;;8.82
24714;BMP280;12820;51.580;5.010;2023-02-10T19:56:56;103525.00;;;8.82
24714;BMP280;12820;51.580;5.010;2023-02-10T20:01:58;103534.22;;;8.83
24714;BMP280;12820;51.580;5.010;2023-02-10T20:07:01;103530.06;;;8.83
24714;BMP280;12820;51.580;5.010;2023-02-10T20:12:03;103518.44;;;8.85
24714;BMP280;12820;51.580;5.010;2023-02-10T20:17:05;103517.66;;;8.87
24714;BMP280;12820;51.580;5.010;2023-02-10T20:22:07;103522.69;;;8.87
24714;BMP280;12820;51.580;5.010;2023-02-10T20:27:10;103524.41;;;8.88
24714;BMP280;12820;51.580;5.010;2023-02-10T20:32:13;103532.84;;;8.90
24714;BMP280;12820;51.580;5.010;2023-02-10T20:37:15;103527.03;;;8.91
24714;BMP280;12820;51.580;5.010;2023-02-10T20:42:17;103518.69;;;8.92
24714;BMP280;12820;51.580;5.010;2023-02-10T20:47:19;103522.91;;;8.93
24714;BMP280;12820;51.580;5.010;2023-02-10T20:52:22;103515.38;;;8.93
24714;BMP280;12820;51.580;5.010;2023-02-10T20:57:24;103505.41;;;8.95
24714;BMP280;12820;51.580;5.010;2023-02-10T21:02:26;103505.41;;;8.95
24714;BMP280;12820;51.580;5.010;2023-02-10T21:07:28;103495.38;;;8.95
24714;BMP280;12820;51.580;5.010;2023-02-10T21:12:30;103492.91;;;8.96
24714;BMP280;12820;51.580;5.010;2023-02-10T21:17:32;103485.41;;;8.96
24714;BMP280;12820;51.580;5.010;2023-02-10T21:22:35;103487.06;;;8.97
24714;BMP280;12820;51.580;5.010;2023-02-10T21:27:38;103474.53;;;8.97
24714;BMP280;12820;51.580;5.010;2023-02-10T21:32:40;103482.13;;;8.99
24714;BMP280;12820;51.580;5.010;2023-02-10T21:37:46;103500.53;;;8.99
24714;BMP280;12820;51.580;5.010;2023-02-10T21:42:48;103524.84;;;9.00
24714;BMP280;12820;51.580;5.010;2023-02-10T21:47:50;103508.13;;;9.01
24714;BMP280;12820;51.580;5.010;2023-02-10T21:52:53;103532.38;;;9.02
24714;BMP280;12820;51.580;5.010;2023-02-10T21:57:55;103550.00;;;9.03
24714;BMP280;12820;51.580;5.010;2023-02-10T22:02:57;103550.00;;;9.03
24714;BMP280;12820;51.580;5.010;2023-02-10T22:08:00;103539.19;;;9.04
24714;BMP280;12820;51.580;5.010;2023-02-10T22:13:02;103544.25;;;9.05
24714;BMP280;12820;51.580;5.010;2023-02-10T22:18:05;103535.03;;;9.06
24714;BMP280;12820;51.580;5.010;2023-02-10T22:23:07;103533.31;;;9.04
24714;BMP280;12820;51.580;5.010;2023-02-10T22:28:09;103529.94;;;9.03
24714;BMP280;12820;51.580;5.010;2023-02-10T22:33:12;103533.16;;;8.99
24714;BMP280;12820;51.580;5.010;2023-02-10T22:38:14;103528.84;;;8.95
24714;BMP280;12820;51.580;5.010;2023-02-10T22:43:16;103546.28;;;8.92
24714;BMP280;12820;51.580;5.010;2023-02-10T22:48:19;103536.16;;;8.89
24714;BMP280;12820;51.580;5.010;2023-02-10T22:53:21;103539.34;;;8.86
24714;BMP280;12820;51.580;5.010;2023-02-10T22:58:23;103550.88;;;8.81
24714;BMP280;12820;51.580;5.010;2023-02-10T23:03:26;103558.34;;;8.79
24714;BMP280;12820;51.580;5.010;2023-02-10T23:08:28;103557.47;;;8.79
24714;BMP280;12820;51.580;5.010;2023-02-10T23:13:30;103554.13;;;8.78
24714;BMP280;12820;51.580;5.010;2023-02-10T23:18:32;103550.75;;;8.78
24714;BMP280;12820;51.580;5.010;2023-02-10T23:23:35;103542.44;;;8.79
24714;BMP280;12820;51.580;5.010;2023-02-10T23:28:38;103534.06;;;8.78
24714;BMP280;12820;51.580;5.010;2023-02-10T23:33:40;103527.38;;;8.79
24714;BMP280;12820;51.580;5.010;2023-02-10T23:38:43;103520.78;;;8.81
24714;BMP280;12820;51.580;5.010;2023-02-10T23:43:45;103512.47;;;8.82
24714;BMP280;12820;51.580;5.010;2023-02-10T23:48:47;103498.25;;;8.82
24714;BMP280;12820;51.580;5.010;2023-02-10T23:53:51;103480.75;;;8.84
24714;BMP280;12820;51.580;5.010;2023-02-10T23:58:53;103484.09;;;8.84
